createdAt,value
2023-05-05T08:22:52.180Z,94974.38
2023-05-05T08:25:18.963Z,94977.38
2023-05-05T08:27:45.881Z,94976.25
2023-05-05T08:30:13.087Z,94971.16
2023-05-05T08:32:40.410Z,94970.28
2023-05-05T08:35:07.731Z,94969.00
2023-05-05T08:37:34.640Z,94974.25
2023-05-05T08:40:03.329Z,94976.25
2023-05-05T08:42:38.148Z,94971.09
2023-05-05T08:45:06.530Z,94972.34
2023-05-05T08:47:34.335Z,94973.44
2023-05-05T08:50:01.855Z,94973.22
2023-05-05T08:52:29.345Z,94973.84
2023-05-05T08:55:00.350Z,94971.72
2023-05-05T08:57:32.709Z,94973.34
2023-05-05T09:00:00.221Z,94971.59
2023-05-05T09:02:28.504Z,94974.63
2023-05-05T09:04:55.737Z,94970.19
2023-05-05T09:07:22.615Z,94976.88
2023-05-05T09:09:49.430Z,94964.09
2023-05-05T09:12:17.912Z,94966.38
2023-05-05T09:14:47.609Z,94972.78
2023-05-05T09:17:24.230Z,94961.09
2023-05-05T09:20:01.746Z,94958.41
2023-05-05T09:22:32.691Z,94955.25
2023-05-05T09:24:59.734Z,94955.44
2023-05-05T09:27:27.342Z,94952.16
2023-05-05T09:29:56.483Z,94955.22
2023-05-05T09:32:23.859Z,94947.06
2023-05-05T09:34:58.127Z,94949.59
2023-05-05T09:37:28.362Z,94944.91
2023-05-05T09:39:55.425Z,94937.44
2023-05-05T09:42:22.061Z,94942.63
2023-05-05T09:44:48.931Z,94939.41
2023-05-05T09:47:28.894Z,94940.06
2023-05-05T09:49:57.771Z,94938.38
2023-05-05T09:52:24.661Z,94937.72
2023-05-05T09:54:53.926Z,94932.69
2023-05-05T09:57:27.601Z,94933.38
2023-05-05T09:59:58.515Z,94928.75
2023-05-05T10:02:33.669Z,94935.66
2023-05-05T10:05:07.589Z,94932.88
2023-05-05T10:07:34.717Z,94925.16
2023-05-05T10:10:01.390Z,94935.03
2023-05-05T10:12:28.775Z,94931.38
2023-05-05T10:14:56.180Z,94931.25
2023-05-05T10:17:23.522Z,94927.38
2023-05-05T10:19:57.080Z,94924.75
2023-05-05T10:22:25.037Z,94925.25
2023-05-05T10:24:57.280Z,94923.00
2023-05-05T10:27:24.719Z,94924.06
2023-05-05T10:29:55.353Z,94916.91
2023-05-05T10:32:50.162Z,94910.53
2023-05-05T10:35:16.696Z,94915.41
2023-05-05T10:37:44.850Z,94902.47
2023-05-05T10:40:12.318Z,94898.28
2023-05-05T10:42:39.847Z,94900.44
2023-05-05T10:45:07.730Z,94893.59
2023-05-05T10:47:35.832Z,94896.03
2023-05-05T10:50:06.642Z,94887.63
2023-05-05T10:52:37.842Z,94889.56
2023-05-05T10:55:11.239Z,94882.59
2023-05-05T10:57:40.516Z,94879.31
2023-05-05T11:00:09.234Z,94879.88
2023-05-05T11:02:36.274Z,94869.22
2023-05-05T11:05:07.334Z,94868.28
2023-05-05T11:07:36.085Z,94866.13
2023-05-05T11:10:04.709Z,94868.34
2023-05-05T11:12:32.669Z,94860.69
2023-05-05T11:15:18.362Z,94861.63
2023-05-05T11:17:46.571Z,94855.75
2023-05-05T11:20:16.621Z,94849.75
2023-05-05T11:23:04.792Z,94844.53
2023-05-05T11:25:52.665Z,94847.53
2023-05-05T11:28:24.266Z,94849.78
2023-05-05T11:31:10.307Z,94843.00
2023-05-05T11:33:38.491Z,94836.16
2023-05-05T11:36:08.164Z,94846.66
2023-05-05T11:38:42.197Z,94840.53
2023-05-05T11:41:12.668Z,94832.84
2023-05-05T11:43:44.090Z,94828.47
2023-05-05T11:48:55.305Z,94833.72
2023-05-05T11:51:24.149Z,94832.72
2023-05-05T11:53:53.270Z,94830.00
2023-05-05T11:56:47.006Z,94834.03
2023-05-05T11:59:15.739Z,94824.63
2023-05-05T12:01:42.925Z,94823.81
2023-05-05T12:04:11.501Z,94819.38
2023-05-05T12:06:38.878Z,94813.19
2023-05-05T12:09:05.691Z,94819.53
2023-05-05T12:11:32.574Z,94818.38
2023-05-05T12:14:10.310Z,94813.59
2023-05-05T12:16:55.370Z,94811.13
2023-05-05T12:19:23.090Z,94810.91
2023-05-05T12:21:50.019Z,94807.69
2023-05-05T12:24:16.870Z,94799.38
2023-05-05T12:26:43.788Z,94804.56
2023-05-05T12:29:11.142Z,94803.72
2023-05-05T12:31:41.287Z,94810.13
2023-05-05T12:34:08.930Z,94797.59
2023-05-05T12:36:37.109Z,94793.97
2023-05-05T12:39:07.359Z,94793.34
2023-05-05T12:41:34.547Z,94792.28
2023-05-05T12:44:03.335Z,94791.34
2023-05-05T12:46:31.334Z,94786.13
2023-05-05T12:49:05.280Z,94785.19
2023-05-05T12:51:33.147Z,94783.25
2023-05-05T12:54:04.508Z,94780.53
2023-05-05T12:56:32.655Z,94776.88
2023-05-05T12:59:01.071Z,94770.66
2023-05-05T13:01:28.079Z,94770.19
2023-05-05T13:04:11.112Z,94767.41
2023-05-05T13:06:38.425Z,94766.19
2023-05-05T13:09:05.498Z,94753.75
2023-05-05T13:11:35.830Z,94750.31
2023-05-05T13:14:05.418Z,94752.47
2023-05-05T13:16:34.424Z,94748.69
2023-05-05T13:19:01.391Z,94748.72
2023-05-05T13:21:31.533Z,94745.81
2023-05-05T13:24:05.145Z,94742.41
2023-05-05T13:26:44.833Z,94734.53
2023-05-05T13:29:13.183Z,94726.13
2023-05-05T13:31:40.178Z,94720.50
2023-05-05T13:34:06.878Z,94719.53
2023-05-05T13:36:49.031Z,94714.22
2023-05-05T13:39:25.205Z,94710.81
2023-05-05T13:44:33.206Z,94707.38
2023-05-05T13:50:00.239Z,94698.59
2023-05-05T13:52:29.851Z,94693.47
2023-05-05T13:55:31.338Z,94686.84
2023-05-05T14:00:51.687Z,94680.16
2023-05-05T14:08:44.895Z,94664.75
2023-05-05T14:11:14.699Z,94665.28
2023-05-05T14:13:43.401Z,94660.53
2023-05-05T14:16:11.140Z,94661.66
2023-05-05T14:21:20.756Z,94661.50
2023-05-05T14:23:47.443Z,94652.50
2023-05-05T14:26:15.480Z,94654.66
2023-05-05T15:12:59.792Z,94646.25
2023-05-05T15:21:19.217Z,94626.03
2023-05-05T15:26:29.374Z,94625.94
2023-05-05T15:28:56.267Z,94632.72
2023-05-05T15:34:04.414Z,94619.47
2023-05-05T15:36:33.314Z,94610.44
2023-05-05T15:38:59.959Z,94603.31
2023-05-05T15:41:29.300Z,94610.13
2023-05-05T15:43:56.278Z,94611.25
2023-05-05T15:46:22.741Z,94609.63
2023-05-05T15:48:49.412Z,94612.31
2023-05-05T15:51:16.335Z,94616.78
2023-05-05T16:01:55.887Z,94616.34
2023-05-05T16:04:24.416Z,94620.44
2023-05-05T16:06:51.000Z,94609.88
2023-05-05T16:09:19.731Z,94610.50
2023-05-05T16:11:47.349Z,94608.81
2023-05-05T16:14:14.031Z,94603.59
2023-05-05T16:16:46.193Z,94602.31
2023-05-05T16:19:12.870Z,94598.03
2023-05-05T16:21:43.612Z,94592.63
2023-05-05T16:24:11.014Z,94599.25
2023-05-05T16:26:39.355Z,94587.22
2023-05-05T16:29:06.780Z,94594.09
2023-05-05T16:34:15.638Z,94608.03
2023-05-05T16:39:23.073Z,94614.03
2023-05-05T16:41:58.845Z,94612.38
2023-05-05T16:44:29.303Z,94609.91
2023-05-05T16:46:55.816Z,94605.88
2023-05-05T17:40:57.140Z,94547.72
2023-05-05T18:47:50.789Z,94867.31
2023-05-05T18:50:18.934Z,94899.31
2023-05-05T18:52:55.335Z,94908.69
2023-05-05T19:59:24.879Z,95021.25
2023-05-05T20:02:06.846Z,95025.53
2023-05-05T20:26:32.227Z,94990.81
